createdAt,value
2019-05-23T00:02:05.884Z,12.80
2019-05-23T00:04:53.016Z,12.80
2019-05-23T00:07:42.678Z,12.70
2019-05-23T00:10:29.464Z,12.70
2019-05-23T00:12:59.714Z,12.70
2019-05-23T00:15:34.461Z,12.50
2019-05-23T00:18:01.803Z,12.70
2019-05-23T00:20:29.261Z,12.50
2019-05-23T00:22:57.822Z,12.40
2019-05-23T00:25:24.969Z,12.60
2019-05-23T00:27:53.518Z,12.70
2019-05-23T00:30:23.275Z,12.60
2019-05-23T00:32:54.790Z,12.50
2019-05-23T00:35:23.361Z,12.50
2019-05-23T00:37:50.448Z,12.50
2019-05-23T00:40:17.400Z,12.40
2019-05-23T00:42:44.963Z,12.20
2019-05-23T00:45:13.944Z,12.20
2019-05-23T00:47:40.543Z,12.10
2019-05-23T00:50:11.407Z,12.30
2019-05-23T00:52:40.487Z,12.50
2019-05-23T00:55:09.025Z,12.60
2019-05-23T00:57:36.689Z,12.70
2019-05-23T01:00:06.433Z,12.70
2019-05-23T01:02:34.308Z,12.80
2019-05-23T01:05:01.671Z,12.90
2019-05-23T01:07:29.740Z,12.80
2019-05-23T01:09:57.483Z,12.80
2019-05-23T01:12:26.749Z,12.70
2019-05-23T01:14:54.238Z,12.80
2019-05-23T01:17:23.484Z,12.80
2019-05-23T01:19:50.269Z,12.60
2019-05-23T01:22:17.522Z,12.40
2019-05-23T01:24:46.186Z,12.30
2019-05-23T01:27:14.709Z,12.40
2019-05-23T01:29:49.617Z,12.50
2019-05-23T01:32:19.047Z,12.60
2019-05-23T01:34:45.878Z,12.60
2019-05-23T01:37:12.973Z,12.60
2019-05-23T01:39:40.094Z,12.70
2019-05-23T01:42:07.494Z,12.80
2019-05-23T01:44:35.268Z,12.80
2019-05-23T01:47:03.236Z,12.80
2019-05-23T01:49:30.715Z,12.80
2019-05-23T01:51:57.567Z,12.70
2019-05-23T01:54:24.765Z,12.70
2019-05-23T01:56:51.765Z,12.70
2019-05-23T01:59:18.915Z,12.60
2019-05-23T02:01:45.731Z,12.60
2019-05-23T02:04:13.545Z,12.60
2019-05-23T02:06:40.427Z,12.50
2019-05-23T02:09:09.903Z,12.50
2019-05-23T02:11:37.704Z,12.50
2019-05-23T02:14:11.877Z,12.60
2019-05-23T02:16:40.648Z,12.50
2019-05-23T02:19:09.171Z,12.50
2019-05-23T02:21:41.742Z,12.50
2019-05-23T02:24:11.606Z,12.40
2019-05-23T02:26:39.562Z,12.50
2019-05-23T02:29:07.317Z,12.60
2019-05-23T02:31:35.770Z,12.40
2019-05-23T02:34:03.686Z,12.60
2019-05-23T02:36:31.852Z,12.60
2019-05-23T02:39:18.359Z,12.60
2019-05-23T02:41:53.370Z,12.50
2019-05-23T02:44:22.388Z,12.60
2019-05-23T02:47:03.546Z,12.60
2019-05-23T02:49:31.846Z,12.60
2019-05-23T02:52:03.136Z,12.40
2019-05-23T02:54:30.053Z,12.50
2019-05-23T02:56:57.703Z,12.70
2019-05-23T02:59:38.629Z,12.70
2019-05-23T03:02:47.071Z,12.70
2019-05-23T03:05:19.271Z,12.80
2019-05-23T03:07:46.097Z,12.80
2019-05-23T03:10:13.359Z,12.60
2019-05-23T03:12:41.977Z,12.60
2019-05-23T03:15:12.085Z,12.70
2019-05-23T03:17:40.756Z,12.80
2019-05-23T03:20:08.447Z,12.80
2019-05-23T03:22:47.975Z,12.80
2019-05-23T03:25:30.942Z,12.80
2019-05-23T03:28:00.450Z,12.80
2019-05-23T03:30:31.642Z,12.70
2019-05-23T03:33:03.091Z,12.80
2019-05-23T03:35:31.791Z,12.70
2019-05-23T03:37:59.206Z,12.70
2019-05-23T03:40:27.724Z,12.70
2019-05-23T03:42:55.713Z,12.30
2019-05-23T03:45:27.321Z,12.30
2019-05-23T03:47:55.812Z,12.50
2019-05-23T03:50:24.138Z,12.70
2019-05-23T03:52:52.907Z,12.80
2019-05-23T03:55:20.948Z,12.80
2019-05-23T03:57:49.007Z,12.80
2019-05-23T04:00:17.933Z,12.70
2019-05-23T04:02:45.630Z,12.70
2019-05-23T04:05:13.438Z,12.80
2019-05-23T04:07:40.905Z,12.90
2019-05-23T04:10:08.169Z,12.80
2019-05-23T04:12:36.096Z,12.80
2019-05-23T04:15:06.055Z,12.80
2019-05-23T04:17:33.553Z,12.90
2019-05-23T04:20:00.533Z,13.00
2019-05-23T04:22:27.870Z,12.90
2019-05-23T04:24:54.763Z,12.90
2019-05-23T04:27:21.662Z,12.90
2019-05-23T04:29:48.725Z,12.90
2019-05-23T04:32:15.811Z,12.90
2019-05-23T04:34:43.801Z,12.90
2019-05-23T04:37:10.732Z,12.80
2019-05-23T04:39:38.252Z,12.70
2019-05-23T04:42:06.457Z,12.80
2019-05-23T04:44:33.673Z,12.90
2019-05-23T04:47:00.758Z,12.90
2019-05-23T04:49:28.047Z,12.60
2019-05-23T04:51:55.633Z,12.70
2019-05-23T04:54:22.341Z,12.90
2019-05-23T04:56:48.932Z,12.90
2019-05-23T04:59:16.242Z,12.90
2019-05-23T05:01:43.439Z,12.90
2019-05-23T05:04:10.824Z,13.00
2019-05-23T05:06:37.727Z,13.00
2019-05-23T05:09:06.981Z,13.00
2019-05-23T05:11:33.796Z,13.10
2019-05-23T05:14:00.705Z,13.10
2019-05-23T05:16:31.371Z,13.10
2019-05-23T05:18:58.889Z,13.10
2019-05-23T05:21:25.922Z,13.10
2019-05-23T05:23:52.990Z,13.10
2019-05-23T05:26:22.127Z,13.00
2019-05-23T05:28:50.231Z,13.00
2019-05-23T05:31:18.063Z,13.10
2019-05-23T05:33:45.041Z,12.90
2019-05-23T05:36:12.387Z,13.10
2019-05-23T05:38:39.770Z,13.20
2019-05-23T05:41:07.207Z,13.20
2019-05-23T05:43:35.235Z,13.40
2019-05-23T05:46:03.023Z,13.30
2019-05-23T05:48:30.728Z,13.30
2019-05-23T05:50:57.840Z,13.30
2019-05-23T05:53:24.818Z,13.20
2019-05-23T05:55:51.925Z,13.40
2019-05-23T05:58:18.899Z,13.40
2019-05-23T06:00:51.250Z,13.40
2019-05-23T06:03:18.424Z,13.50
2019-05-23T06:05:59.362Z,13.60
2019-05-23T06:08:28.090Z,13.50
2019-05-23T06:10:55.330Z,13.60
2019-05-23T06:13:23.593Z,13.60
2019-05-23T06:15:51.383Z,13.70
2019-05-23T06:18:19.629Z,13.80
2019-05-23T06:20:47.217Z,14.00
2019-05-23T06:23:15.093Z,13.90
2019-05-23T06:25:42.141Z,14.00
2019-05-23T06:28:09.544Z,14.10
2019-05-23T06:30:37.408Z,14.10
2019-05-23T06:33:21.993Z,14.30
2019-05-23T06:35:33.591Z,14.10
2019-05-23T06:38:01.023Z,14.50
2019-05-23T06:40:28.939Z,14.50
2019-05-23T06:42:56.449Z,14.30
2019-05-23T06:45:23.493Z,14.20
2019-05-23T06:47:50.253Z,14.20
2019-05-23T06:50:19.104Z,14.10
2019-05-23T06:52:45.781Z,14.20
2019-05-23T06:55:12.747Z,14.10
2019-05-23T06:57:39.639Z,14.10
2019-05-23T07:00:06.515Z,14.20
2019-05-23T07:02:33.969Z,14.50
2019-05-23T07:05:00.761Z,14.60
2019-05-23T07:07:28.157Z,14.70
2019-05-23T07:09:55.821Z,14.50
2019-05-23T07:12:22.531Z,14.50
2019-05-23T07:14:49.397Z,14.40
2019-05-23T07:17:17.860Z,14.50
2019-05-23T07:19:44.968Z,14.70
2019-05-23T07:22:11.839Z,14.80
2019-05-23T07:24:55.170Z,14.60
2019-05-23T07:27:07.190Z,14.50
2019-05-23T07:29:35.147Z,14.50
2019-05-23T07:32:03.609Z,14.60
2019-05-23T07:34:30.481Z,14.60
2019-05-23T07:36:57.197Z,14.40
2019-05-23T07:39:23.914Z,14.50
2019-05-23T07:41:50.817Z,14.70
2019-05-23T07:44:18.386Z,14.60
2019-05-23T07:46:45.341Z,14.90
2019-05-23T07:49:12.215Z,15.20
2019-05-23T07:51:38.761Z,15.20
2019-05-23T07:54:14.272Z,15.10
2019-05-23T07:56:43.133Z,15.20
2019-05-23T07:59:09.997Z,15.00
2019-05-23T08:01:39.717Z,15.20
2019-05-23T08:04:20.351Z,15.30
2019-05-23T08:06:36.473Z,15.30
2019-05-23T08:09:06.766Z,15.10
2019-05-23T08:11:34.288Z,15.20
2019-05-23T08:14:01.707Z,15.40
2019-05-23T08:16:28.577Z,15.30
2019-05-23T08:18:55.439Z,15.50
2019-05-23T08:21:22.510Z,16.10
2019-05-23T08:23:49.122Z,16.00
2019-05-23T08:26:17.803Z,16.20
2019-05-23T08:29:00.899Z,15.90
2019-05-23T08:31:15.093Z,15.80
2019-05-23T08:33:41.941Z,16.00
2019-05-23T08:36:09.530Z,16.30
2019-05-23T08:38:36.905Z,16.60
2019-05-23T08:41:05.558Z,16.70
2019-05-23T08:43:33.089Z,16.70
2019-05-23T08:45:59.996Z,16.60
2019-05-23T08:48:27.659Z,16.70
2019-05-23T08:50:55.533Z,16.90
2019-05-23T08:53:22.837Z,17.10
2019-05-23T08:55:50.405Z,16.80
2019-05-23T08:58:17.447Z,16.40
2019-05-23T09:00:45.382Z,16.60
2019-05-23T09:03:13.361Z,16.60
2019-05-23T09:05:40.928Z,16.60
2019-05-23T09:08:10.620Z,16.80
2019-05-23T09:10:37.714Z,16.80
2019-05-23T09:13:05.154Z,16.80
2019-05-23T09:15:31.871Z,16.90
2019-05-23T09:17:58.734Z,17.00
2019-05-23T09:20:26.023Z,17.20
2019-05-23T09:22:52.901Z,17.50
2019-05-23T09:25:20.360Z,17.50
2019-05-23T09:27:48.891Z,17.60
2019-05-23T09:30:17.415Z,17.60
2019-05-23T09:32:44.125Z,17.80
2019-05-23T09:35:21.033Z,17.90
2019-05-23T09:37:42.184Z,18.00
2019-05-23T09:40:09.799Z,18.20
2019-05-23T09:42:36.683Z,18.20
2019-05-23T09:45:05.474Z,18.30
2019-05-23T09:47:34.047Z,18.40
2019-05-23T09:50:00.710Z,18.70
2019-05-23T09:52:28.321Z,18.80
2019-05-23T09:54:54.967Z,19.00
2019-05-23T09:57:21.872Z,19.30
2019-05-23T09:59:48.852Z,19.30
2019-05-23T10:02:16.312Z,19.70
2019-05-23T10:04:42.979Z,19.80
2019-05-23T10:07:10.718Z,19.80
2019-05-23T10:09:37.337Z,19.60
2019-05-23T10:12:04.101Z,19.80
2019-05-23T10:14:32.699Z,20.10
2019-05-23T10:16:59.343Z,20.00
2019-05-23T10:19:26.273Z,20.40
2019-05-23T10:21:53.057Z,20.60
2019-05-23T10:24:19.934Z,20.80
2019-05-23T10:26:47.161Z,20.70
2019-05-23T10:29:13.727Z,20.80
2019-05-23T10:31:40.462Z,20.70
2019-05-23T10:34:07.013Z,20.70
2019-05-23T10:36:33.680Z,20.90
2019-05-23T10:39:01.368Z,21.10
2019-05-23T10:41:28.770Z,21.20
2019-05-23T10:43:55.662Z,21.60
2019-05-23T10:46:22.538Z,21.70
2019-05-23T10:48:49.390Z,21.50
2019-05-23T10:51:16.192Z,21.40
2019-05-23T10:53:42.949Z,21.50
2019-05-23T10:56:10.693Z,21.30
2019-05-23T10:58:37.584Z,21.40
2019-05-23T11:01:04.445Z,21.90
2019-05-23T11:03:31.188Z,22.00
2019-05-23T11:05:58.349Z,22.00
2019-05-23T11:08:29.180Z,21.90
2019-05-23T11:10:53.674Z,22.30
2019-05-23T11:13:20.475Z,22.50
2019-05-23T11:15:47.645Z,22.40
2019-05-23T11:18:14.756Z,22.60
2019-05-23T11:20:41.661Z,22.80
2019-05-23T11:23:09.448Z,22.90
2019-05-23T11:25:37.707Z,23.10
2019-05-23T11:28:04.550Z,23.20
2019-05-23T11:30:33.369Z,23.20
2019-05-23T11:33:00.019Z,23.10
2019-05-23T11:35:26.785Z,22.80
2019-05-23T11:37:53.586Z,22.90
2019-05-23T11:40:20.308Z,22.60
2019-05-23T11:42:47.805Z,22.80
2019-05-23T11:45:14.604Z,23.30
2019-05-23T11:47:41.190Z,23.60
2019-05-23T11:50:08.374Z,24.40
2019-05-23T11:52:35.116Z,24.40
2019-05-23T11:55:06.345Z,24.10
2019-05-23T11:57:37.481Z,24.00
2019-05-23T12:00:07.253Z,24.20
2019-05-23T12:02:36.240Z,24.20
2019-05-23T12:05:06.729Z,24.20
2019-05-23T12:07:33.841Z,24.00
2019-05-23T12:10:00.715Z,24.40
2019-05-23T12:12:27.361Z,24.00
2019-05-23T12:14:54.444Z,24.10
2019-05-23T12:17:22.232Z,24.30
2019-05-23T12:19:49.131Z,24.20
2019-05-23T12:22:15.930Z,24.30
2019-05-23T12:24:42.615Z,24.50
2019-05-23T12:27:09.512Z,25.00
2019-05-23T12:29:36.347Z,25.40
2019-05-23T12:32:05.143Z,25.40
2019-05-23T12:34:31.793Z,25.50
2019-05-23T12:37:16.973Z,25.50
2019-05-23T12:39:27.141Z,25.40
2019-05-23T12:41:53.747Z,25.40
2019-05-23T12:44:20.727Z,25.60
2019-05-23T12:46:47.434Z,25.90
2019-05-23T12:49:18.608Z,25.40
2019-05-23T12:51:45.904Z,25.10
2019-05-23T12:54:13.403Z,24.50
2019-05-23T12:56:40.582Z,24.10
2019-05-23T12:59:07.887Z,24.00
2019-05-23T13:01:36.465Z,24.60
2019-05-23T13:04:04.046Z,24.50
2019-05-23T13:06:32.405Z,24.80
2019-05-23T13:08:59.586Z,25.40
2019-05-23T13:11:26.842Z,25.20
2019-05-23T13:13:53.697Z,25.20
2019-05-23T13:16:20.377Z,25.50
2019-05-23T13:18:47.654Z,25.70
2019-05-23T13:21:14.620Z,25.80
2019-05-23T13:23:41.233Z,25.80
2019-05-23T13:26:08.327Z,25.50
2019-05-23T13:28:35.180Z,25.40
2019-05-23T13:31:02.057Z,25.90
2019-05-23T13:33:29.222Z,26.30
2019-05-23T13:35:55.819Z,25.80
2019-05-23T13:38:22.612Z,26.00
2019-05-23T13:40:51.174Z,25.80
2019-05-23T13:43:17.861Z,26.50
2019-05-23T13:45:44.934Z,26.50
2019-05-23T13:48:11.645Z,26.70
2019-05-23T13:50:40.008Z,26.80
2019-05-23T13:53:06.873Z,26.80
2019-05-23T13:55:33.433Z,26.60
2019-05-23T13:58:00.027Z,26.90
2019-05-23T14:00:28.295Z,27.20
2019-05-23T14:02:55.120Z,27.40
2019-05-23T14:05:22.277Z,26.80
2019-05-23T14:07:48.929Z,26.60
2019-05-23T14:10:16.938Z,27.50
2019-05-23T14:12:44.017Z,27.30
2019-05-23T14:15:15.515Z,27.30
2019-05-23T14:17:43.979Z,27.70
2019-05-23T14:20:12.262Z,28.40
2019-05-23T14:22:40.832Z,27.50
2019-05-23T14:25:08.647Z,27.40
2019-05-23T14:27:37.565Z,26.90
2019-05-23T14:30:16.485Z,26.40
2019-05-23T14:32:51.555Z,26.30
2019-05-23T14:35:20.038Z,26.00
2019-05-23T14:37:49.714Z,25.70
2019-05-23T14:40:16.782Z,25.60
2019-05-23T14:42:45.375Z,26.10
2019-05-23T14:45:31.150Z,26.90
2019-05-23T14:48:03.231Z,29.40
2019-05-23T14:50:31.958Z,29.10
2019-05-23T14:53:03.266Z,28.40
2019-05-23T14:55:30.007Z,27.70
2019-05-23T14:57:57.247Z,26.80
2019-05-23T15:00:25.912Z,26.50
2019-05-23T15:02:53.996Z,26.10
2019-05-23T15:05:20.878Z,25.70
2019-05-23T15:07:47.436Z,25.40
2019-05-23T15:10:14.806Z,24.90
2019-05-23T15:12:41.442Z,24.60
2019-05-23T15:15:10.326Z,24.30
2019-05-23T15:17:37.991Z,24.20
2019-05-23T15:20:07.046Z,23.90
2019-05-23T15:22:33.785Z,23.70
2019-05-23T15:25:00.446Z,23.60
2019-05-23T15:27:27.506Z,23.60
2019-05-23T15:29:54.069Z,23.60
2019-05-23T15:32:20.722Z,23.40
2019-05-23T15:34:47.284Z,23.20
2019-05-23T15:37:13.984Z,22.70
2019-05-23T15:39:40.552Z,22.50
2019-05-23T15:42:07.309Z,22.30
2019-05-23T15:44:33.919Z,22.10
2019-05-23T15:47:00.533Z,22.00
2019-05-23T15:49:29.098Z,22.00
2019-05-23T15:51:57.679Z,21.90
2019-05-23T15:54:29.228Z,21.90
2019-05-23T15:57:06.555Z,22.00
2019-05-23T15:59:38.317Z,22.00
2019-05-23T16:02:09.514Z,21.80
2019-05-23T16:04:36.968Z,21.70
2019-05-23T16:07:04.415Z,21.80
2019-05-23T16:09:33.020Z,21.60
2019-05-23T16:11:59.695Z,21.90
2019-05-23T16:14:27.163Z,21.70
2019-05-23T16:16:56.673Z,21.70
2019-05-23T16:19:23.467Z,21.80
2019-05-23T16:21:50.131Z,21.70
2019-05-23T16:24:17.103Z,21.30
2019-05-23T16:26:44.083Z,21.00
2019-05-23T16:29:12.344Z,21.00
2019-05-23T16:31:39.514Z,21.40
2019-05-23T16:34:06.376Z,21.50
2019-05-23T16:36:33.454Z,21.50
2019-05-23T16:39:00.195Z,21.40
2019-05-23T16:41:26.789Z,21.40
2019-05-23T16:43:53.334Z,21.20
2019-05-23T16:46:20.183Z,21.20
2019-05-23T16:48:47.525Z,21.20
2019-05-23T16:51:14.298Z,21.20
2019-05-23T16:53:41.041Z,21.30
2019-05-23T16:56:10.019Z,21.30
2019-05-23T16:58:56.370Z,21.30
2019-05-23T17:01:30.938Z,21.20
2019-05-23T17:04:05.641Z,21.10
2019-05-23T17:06:43.148Z,21.10
2019-05-23T17:09:31.594Z,20.90
2019-05-23T17:12:02.126Z,20.90
2019-05-23T17:14:33.655Z,21.00
2019-05-23T17:17:38.217Z,20.80
2019-05-23T17:19:52.855Z,20.60
2019-05-23T17:22:22.702Z,20.70
2019-05-23T17:24:54.161Z,20.50
2019-05-23T17:27:22.733Z,20.40
2019-05-23T17:29:54.128Z,20.50
2019-05-23T17:32:22.592Z,20.40
2019-05-23T17:34:49.563Z,20.40
2019-05-23T17:37:16.353Z,20.40
2019-05-23T17:39:43.315Z,20.50
2019-05-23T17:42:10.656Z,20.40
2019-05-23T17:44:37.361Z,20.30
2019-05-23T17:47:04.038Z,20.20
2019-05-23T17:49:31.682Z,20.10
2019-05-23T17:51:58.473Z,20.00
2019-05-23T17:54:25.828Z,19.90
2019-05-23T17:56:52.542Z,19.80
2019-05-23T17:59:19.204Z,19.70
2019-05-23T18:01:46.099Z,19.60
2019-05-23T18:04:13.148Z,19.50
2019-05-23T18:06:40.603Z,19.30
2019-05-23T18:09:08.500Z,19.30
2019-05-23T18:11:36.233Z,19.10
2019-05-23T18:14:04.351Z,19.00
2019-05-23T18:16:31.509Z,18.80
2019-05-23T18:18:58.457Z,18.80
2019-05-23T18:21:25.135Z,18.80
2019-05-23T18:23:53.411Z,18.70
2019-05-23T18:26:21.351Z,18.60
2019-05-23T18:28:48.006Z,18.60
2019-05-23T18:31:16.625Z,18.60
2019-05-23T18:33:44.097Z,18.60
2019-05-23T18:36:10.835Z,18.50
2019-05-23T18:38:37.679Z,18.20
2019-05-23T18:41:08.992Z,18.30
2019-05-23T18:43:34.524Z,18.30
2019-05-23T18:46:05.149Z,18.30
2019-05-23T18:48:32.308Z,18.20
2019-05-23T18:50:59.073Z,18.10
2019-05-23T18:53:26.647Z,18.10
2019-05-23T18:55:53.387Z,18.00
2019-05-23T18:58:21.168Z,17.90
2019-05-23T19:01:00.637Z,17.90
2019-05-23T19:03:28.165Z,17.80
2019-05-23T19:05:55.047Z,17.80
2019-05-23T19:08:22.618Z,17.70
2019-05-23T19:10:49.853Z,17.60
2019-05-23T19:13:16.494Z,17.60
2019-05-23T19:15:43.252Z,17.60
2019-05-23T19:33:00.578Z,17.10
2019-05-23T19:35:27.606Z,17.10
2019-05-23T19:37:54.825Z,16.90
2019-05-23T19:40:42.957Z,16.70
2019-05-23T19:43:21.229Z,16.40
2019-05-23T19:46:05.435Z,16.40
2019-05-23T19:48:54.656Z,16.40
2019-05-23T19:51:23.877Z,16.50
2019-05-23T19:53:50.904Z,16.50
2019-05-23T19:56:18.231Z,16.70
2019-05-23T19:58:46.151Z,16.80
2019-05-23T20:04:08.709Z,16.70
2019-05-23T20:06:35.616Z,16.60
2019-05-23T20:09:09.324Z,16.30
2019-05-23T20:11:34.762Z,16.40
2019-05-23T20:14:01.642Z,16.10
2019-05-23T20:16:28.428Z,16.20
2019-05-23T20:18:55.686Z,16.10
2019-05-23T20:21:22.500Z,16.30
2019-05-23T20:23:49.149Z,16.50
2019-05-23T20:26:15.899Z,16.50
2019-05-23T20:28:42.764Z,16.60
2019-05-23T20:31:09.549Z,16.40
2019-05-23T20:33:36.526Z,16.20
2019-05-23T20:36:04.022Z,16.20
2019-05-23T20:38:30.931Z,16.30
2019-05-23T20:40:57.876Z,16.50
2019-05-23T20:43:24.631Z,16.60
2019-05-23T20:45:51.408Z,16.80
2019-05-23T20:48:18.347Z,16.90
2019-05-23T20:50:45.242Z,16.90
2019-05-23T20:53:12.317Z,16.90
2019-05-23T20:55:39.116Z,16.40
2019-05-23T20:58:06.103Z,16.30
2019-05-23T21:00:35.216Z,16.20
2019-05-23T21:03:03.428Z,16.30
2019-05-23T21:05:30.512Z,16.40
2019-05-23T21:07:57.526Z,16.40
2019-05-23T21:10:42.982Z,16.40
2019-05-23T21:13:09.613Z,16.40
2019-05-23T21:15:36.394Z,16.60
2019-05-23T21:18:04.078Z,16.70
2019-05-23T21:20:30.846Z,16.80
2019-05-23T21:22:57.656Z,16.80
2019-05-23T21:25:25.647Z,16.70
2019-05-23T21:27:52.201Z,16.70
2019-05-23T21:30:18.866Z,16.60
2019-05-23T21:32:48.821Z,16.50
2019-05-23T21:35:17.792Z,16.40
2019-05-23T21:37:44.678Z,16.60
2019-05-23T21:40:15.975Z,16.80
2019-05-23T21:42:47.799Z,17.00
2019-05-23T21:45:11.964Z,17.00
2019-05-23T21:47:38.644Z,17.00
2019-05-23T21:50:06.480Z,16.90
2019-05-23T21:52:33.056Z,16.90
2019-05-23T21:54:59.785Z,17.10
2019-05-23T21:57:26.467Z,17.20
2019-05-23T21:59:53.662Z,17.20
2019-05-23T22:02:24.889Z,17.10
2019-05-23T22:04:53.361Z,17.10
2019-05-23T22:07:20.039Z,17.10
2019-05-23T22:09:46.726Z,17.00
2019-05-23T22:12:14.182Z,17.00
2019-05-23T22:14:41.184Z,17.10
2019-05-23T22:17:07.948Z,17.20
2019-05-23T22:19:34.733Z,17.20
2019-05-23T22:22:02.004Z,17.20
2019-05-23T22:24:29.012Z,17.10
2019-05-23T22:26:55.816Z,17.10
2019-05-23T22:29:23.462Z,17.20
2019-05-23T22:31:51.943Z,17.20
2019-05-23T22:34:20.429Z,17.10
2019-05-23T22:36:47.110Z,17.10
2019-05-23T22:39:13.987Z,17.10
2019-05-23T22:41:40.534Z,16.80
2019-05-23T22:44:09.131Z,16.90
2019-05-23T22:46:35.908Z,16.80
2019-05-23T22:49:02.653Z,16.60
2019-05-23T22:51:29.340Z,16.50
2019-05-23T22:53:55.908Z,16.50
2019-05-23T22:56:22.479Z,16.50
2019-05-23T22:58:50.181Z,16.40
2019-05-23T23:01:17.949Z,16.40
2019-05-23T23:03:45.945Z,16.40
2019-05-23T23:06:13.007Z,16.30
2019-05-23T23:08:39.770Z,16.20
2019-05-23T23:11:06.392Z,16.20
2019-05-23T23:13:38.539Z,16.30
2019-05-23T23:16:01.408Z,16.30
2019-05-23T23:18:28.082Z,16.20
2019-05-23T23:20:54.757Z,16.10
2019-05-23T23:23:21.412Z,16.20
2019-05-23T23:25:47.951Z,16.10
2019-05-23T23:28:14.500Z,16.10
2019-05-23T23:30:43.082Z,16.20
2019-05-23T23:33:09.717Z,16.30
2019-05-23T23:35:36.245Z,16.30
2019-05-23T23:38:03.079Z,16.10
2019-05-23T23:40:29.715Z,16.10
2019-05-23T23:42:56.243Z,16.10
2019-05-23T23:45:41.304Z,16.10
2019-05-23T23:48:26.733Z,16.10
2019-05-23T23:51:12.103Z,16.10
2019-05-23T23:53:57.471Z,16.00
2019-05-23T23:56:42.783Z,15.90
2019-05-23T23:59:09.210Z,16.00
